createdAt,value
2023-06-10T00:03:47.874Z,17.12
2023-06-10T00:07:50.757Z,16.92
2023-06-10T00:11:52.253Z,16.89
2023-06-10T00:15:53.712Z,16.84
2023-06-10T00:19:55.211Z,16.69
2023-06-10T00:23:58.064Z,16.62
2023-06-10T00:27:59.626Z,16.50
2023-06-10T00:32:01.230Z,16.42
2023-06-10T00:36:02.921Z,16.17
2023-06-10T00:40:07.104Z,16.24
2023-06-10T00:44:08.608Z,15.91
2023-06-10T00:48:10.820Z,15.69
2023-06-10T00:52:12.725Z,15.77
2023-06-10T00:56:15.642Z,15.58
2023-06-10T01:00:18.099Z,15.52
2023-06-10T01:04:19.552Z,15.31
2023-06-10T01:08:29.423Z,15.13
2023-06-10T01:12:40.171Z,15.01
2023-06-10T01:16:41.752Z,15.09
2023-06-10T01:20:44.466Z,14.92
2023-06-10T01:24:47.269Z,14.94
2023-06-10T01:28:52.559Z,14.94
2023-06-10T01:32:54.857Z,14.70
2023-06-10T01:36:59.147Z,14.58
2023-06-10T01:41:02.595Z,14.60
2023-06-10T01:45:05.101Z,14.91
2023-06-10T01:49:06.541Z,14.76
2023-06-10T01:53:07.989Z,14.57
2023-06-10T01:57:10.903Z,14.36
2023-06-10T02:01:12.519Z,14.27
2023-06-10T02:05:14.037Z,14.13
2023-06-10T02:09:15.618Z,14.02
2023-06-10T02:13:18.419Z,13.97
2023-06-10T02:17:19.948Z,13.86
2023-06-10T02:21:21.484Z,13.81
2023-06-10T02:25:22.932Z,13.66
2023-06-10T02:29:25.713Z,13.52
2023-06-10T02:33:27.277Z,13.48
2023-06-10T02:37:28.742Z,13.37
2023-06-10T02:41:30.192Z,13.30
2023-06-10T02:45:32.989Z,13.38
2023-06-10T02:49:34.463Z,13.44
2023-06-10T02:53:35.904Z,13.53
2023-06-10T02:57:37.361Z,13.48
2023-06-10T03:01:40.197Z,13.34
2023-06-10T03:05:41.644Z,13.21
2023-06-10T03:09:45.513Z,13.10
2023-06-10T03:13:47.385Z,13.11
2023-06-10T03:17:50.195Z,13.22
2023-06-10T03:22:09.982Z,13.18
2023-06-10T03:26:12.097Z,13.14
2023-06-10T03:30:14.022Z,13.11
2023-06-10T03:34:16.798Z,13.09
2023-06-10T03:38:18.269Z,13.09
2023-06-10T03:42:19.718Z,13.06
2023-06-10T03:46:21.209Z,13.11
2023-06-10T03:50:24.060Z,13.14
2023-06-10T03:54:25.540Z,13.21
2023-06-10T03:58:26.996Z,13.29
2023-06-10T04:02:28.511Z,13.41
2023-06-10T04:06:31.349Z,13.57
2023-06-10T04:10:32.785Z,13.84
2023-06-10T04:14:34.242Z,13.91
2023-06-10T04:18:35.679Z,14.25
2023-06-10T04:22:38.458Z,14.55
2023-06-10T04:26:39.942Z,14.68
2023-06-10T04:30:41.465Z,14.88
2023-06-10T04:34:42.901Z,15.07
2023-06-10T04:38:45.703Z,15.38
2023-06-10T04:42:47.184Z,15.40
2023-06-10T04:46:48.953Z,15.62
2023-06-10T04:50:50.573Z,15.76
2023-06-10T04:54:53.421Z,15.89
2023-06-10T04:58:54.877Z,16.17
2023-06-10T05:02:56.386Z,16.29
2023-06-10T05:06:57.953Z,16.38
2023-06-10T05:11:00.729Z,16.43
2023-06-10T05:15:02.202Z,16.49
2023-06-10T05:19:05.632Z,16.74
2023-06-10T05:23:09.480Z,16.69
2023-06-10T05:27:12.248Z,17.01
2023-06-10T05:31:13.723Z,17.05
2023-06-10T05:35:15.286Z,16.95
2023-06-10T05:39:16.741Z,17.17
2023-06-10T05:43:19.504Z,17.35
2023-06-10T05:47:21.062Z,17.40
2023-06-10T05:51:22.533Z,17.78
2023-06-10T05:55:24.021Z,17.77
2023-06-10T05:59:26.814Z,17.95
2023-06-10T06:03:28.283Z,18.08
2023-06-10T06:07:30.615Z,18.18
2023-06-10T06:11:32.114Z,18.26
2023-06-10T06:15:34.870Z,18.53
2023-06-10T06:19:36.504Z,18.80
2023-06-10T06:23:37.998Z,18.81
2023-06-10T06:27:39.792Z,18.78
2023-06-10T06:31:42.624Z,18.75
2023-06-10T06:35:44.144Z,18.92
2023-06-10T06:39:45.796Z,19.09
2023-06-10T06:43:47.299Z,19.06
2023-06-10T06:47:50.156Z,19.38
2023-06-10T06:51:51.656Z,19.78
2023-06-10T06:55:53.118Z,19.98
2023-06-10T06:59:54.554Z,19.92
2023-06-10T07:03:57.305Z,20.07
2023-06-10T07:07:58.803Z,20.40
2023-06-10T07:12:00.501Z,20.72
2023-06-10T07:16:02.226Z,20.95
2023-06-10T07:20:05.894Z,21.02
2023-06-10T07:24:07.723Z,21.13
2023-06-10T07:28:09.520Z,20.86
2023-06-10T07:32:11.017Z,20.57
2023-06-10T07:36:13.827Z,20.91
2023-06-10T07:40:15.303Z,20.75
2023-06-10T07:44:16.798Z,21.15
2023-06-10T07:48:18.405Z,21.53
2023-06-10T07:52:21.383Z,21.26
2023-06-10T07:56:23.016Z,21.26
2023-06-10T08:00:24.819Z,21.58
2023-06-10T08:04:26.435Z,21.48
2023-06-10T08:08:29.257Z,21.77
2023-06-10T08:12:30.895Z,21.91
2023-06-10T08:16:32.376Z,21.87
2023-06-10T08:20:33.865Z,22.37
2023-06-10T08:24:36.771Z,22.80
2023-06-10T08:28:38.495Z,23.00
2023-06-10T08:32:40.143Z,23.10
2023-06-10T08:36:41.656Z,23.10
2023-06-10T08:40:44.554Z,22.93
2023-06-10T08:44:47.552Z,23.20
2023-06-10T08:48:53.402Z,23.34
2023-06-10T08:52:58.175Z,22.63
2023-06-10T08:57:02.029Z,22.68
2023-06-10T09:01:03.573Z,23.02
2023-06-10T09:05:06.100Z,23.14
2023-06-10T09:09:08.131Z,23.11
2023-06-10T09:13:11.130Z,22.95
2023-06-10T09:17:12.749Z,23.22
2023-06-10T09:21:14.288Z,23.02
2023-06-10T09:25:15.866Z,23.29
2023-06-10T09:29:18.734Z,23.03
2023-06-10T09:33:20.163Z,23.33
2023-06-10T09:37:22.891Z,24.03
2023-06-10T09:41:33.052Z,24.44
2023-06-10T09:45:35.877Z,24.22
2023-06-10T09:49:38.746Z,24.38
2023-06-10T09:53:40.242Z,24.67
2023-06-10T09:57:41.699Z,25.31
2023-06-10T10:01:44.549Z,24.94
2023-06-10T10:05:46.259Z,25.43
2023-06-10T10:09:47.889Z,26.03
2023-06-10T10:13:50.683Z,25.49
2023-06-10T10:18:01.753Z,24.59
2023-06-10T10:22:09.242Z,23.93
2023-06-10T10:26:11.845Z,23.63
2023-06-10T10:30:15.382Z,24.39
2023-06-10T10:34:25.109Z,24.90
2023-06-10T10:38:27.167Z,25.07
2023-06-10T10:42:29.258Z,24.40
2023-06-10T10:46:31.087Z,24.54
2023-06-10T10:50:33.867Z,25.04
2023-06-10T10:54:36.611Z,25.43
2023-06-10T10:58:38.124Z,26.06
2023-06-10T11:02:42.862Z,25.64
2023-06-10T11:06:54.767Z,24.40
2023-06-10T11:10:56.302Z,25.31
2023-06-10T11:14:57.930Z,26.06
2023-06-10T11:18:59.379Z,25.75
2023-06-10T11:23:03.310Z,25.25
2023-06-10T11:27:16.499Z,26.09
2023-06-10T11:31:20.646Z,26.34
2023-06-10T11:35:24.669Z,27.02
2023-06-10T11:39:27.508Z,27.27
2023-06-10T11:43:30.863Z,27.66
2023-06-10T11:47:32.402Z,26.65
2023-06-10T11:51:36.066Z,26.28
2023-06-10T11:55:46.320Z,26.02
2023-06-10T11:59:47.894Z,26.45
2023-06-10T12:03:57.138Z,27.44
2023-06-10T12:08:11.659Z,27.56
2023-06-10T12:12:14.753Z,27.84
2023-06-10T12:16:16.482Z,28.69
2023-06-10T12:20:26.198Z,28.93
2023-06-10T12:24:27.642Z,28.17
2023-06-10T12:28:30.450Z,26.19
2023-06-10T12:32:39.873Z,25.73
2023-06-10T12:36:49.153Z,26.78
2023-06-10T12:40:51.280Z,27.58
2023-06-10T12:44:55.445Z,30.84
2023-06-10T12:48:56.915Z,31.82
2023-06-10T12:52:58.391Z,32.72
2023-06-10T12:56:59.874Z,32.47
2023-06-10T13:01:02.702Z,32.46
2023-06-10T13:05:04.590Z,29.26
2023-06-10T13:09:06.918Z,27.92
2023-06-10T13:13:08.399Z,26.24
2023-06-10T13:17:11.356Z,27.17
2023-06-10T13:21:13.004Z,28.60
2023-06-10T13:25:14.817Z,30.15
2023-06-10T13:29:16.441Z,29.39
2023-06-10T13:33:19.249Z,28.80
2023-06-10T13:37:20.796Z,27.86
2023-06-10T13:41:22.367Z,28.00
2023-06-10T13:45:23.896Z,29.18
2023-06-10T13:49:26.732Z,29.83
2023-06-10T13:53:28.198Z,29.78
2023-06-10T13:57:29.689Z,29.11
2023-06-10T14:01:31.252Z,32.27
2023-06-10T14:05:34.162Z,31.08
2023-06-10T14:09:35.825Z,30.37
2023-06-10T14:13:37.391Z,29.86
2023-06-10T14:17:38.910Z,29.08
2023-06-10T14:21:41.801Z,28.83
2023-06-10T14:25:43.424Z,29.22
2023-06-10T14:29:44.978Z,30.50
2023-06-10T14:33:46.488Z,29.87
2023-06-10T14:37:49.318Z,33.41
2023-06-10T14:41:50.772Z,32.64
2023-06-10T14:45:52.338Z,32.96
2023-06-10T14:49:54.077Z,34.06
2023-06-10T14:53:56.848Z,34.06
2023-06-10T14:57:58.286Z,32.59
2023-06-10T15:01:59.911Z,34.65
2023-06-10T15:06:01.578Z,34.44
2023-06-10T15:10:05.496Z,31.90
2023-06-10T15:14:06.845Z,32.24
2023-06-10T15:18:08.356Z,32.94
2023-06-10T15:22:10.007Z,29.07
2023-06-10T15:26:12.777Z,29.60
2023-06-10T15:30:14.568Z,29.11
2023-06-10T15:34:16.031Z,28.98
2023-06-10T15:38:17.508Z,29.87
2023-06-10T15:42:20.405Z,29.94
2023-06-10T15:46:22.093Z,28.84
2023-06-10T15:50:23.929Z,29.19
2023-06-10T15:54:25.378Z,31.09
2023-06-10T15:58:28.168Z,28.86
2023-06-10T16:02:29.702Z,27.89
2023-06-10T16:06:31.147Z,27.35
2023-06-10T16:10:32.594Z,27.09
2023-06-10T16:14:35.380Z,26.02
2023-06-10T16:18:36.836Z,25.61
2023-06-10T16:22:38.275Z,25.26
2023-06-10T16:26:39.736Z,24.91
2023-06-10T16:30:42.726Z,25.38
2023-06-10T16:34:45.236Z,25.25
2023-06-10T16:38:46.669Z,25.18
2023-06-10T16:42:48.094Z,25.10
2023-06-10T17:04:43.082Z,23.67
2023-06-10T17:08:44.558Z,23.52
2023-06-10T17:12:45.991Z,23.39
2023-06-10T17:16:47.471Z,23.31
2023-06-10T17:20:50.263Z,23.20
2023-06-10T17:24:51.702Z,23.09
2023-06-10T17:28:53.181Z,22.97
2023-06-10T17:32:54.776Z,22.88
2023-06-10T17:36:58.308Z,22.78
2023-06-10T17:40:59.783Z,22.60
2023-06-10T17:45:01.260Z,22.46
2023-06-10T17:49:02.730Z,22.24
2023-06-10T17:53:05.558Z,22.01
2023-06-10T17:57:07.123Z,21.83
2023-06-10T18:01:08.970Z,21.72
2023-06-10T18:05:10.968Z,21.68
2023-06-10T18:09:14.216Z,21.78
2023-06-10T18:13:16.162Z,21.66
2023-06-10T18:17:17.619Z,21.45
2023-06-10T18:21:19.220Z,21.27
2023-06-10T18:25:22.074Z,21.09
2023-06-10T18:29:23.538Z,20.89
2023-06-10T18:33:25.822Z,20.71
2023-06-10T18:37:27.361Z,20.56
2023-06-10T18:41:30.240Z,20.34
2023-06-10T18:45:31.944Z,20.14
2023-06-10T18:49:33.535Z,19.96
2023-06-10T18:53:35.135Z,19.80
2023-06-10T18:57:37.962Z,19.72
2023-06-10T19:01:39.537Z,19.57
2023-06-10T19:05:41.051Z,19.40
2023-06-10T19:09:42.552Z,19.16
2023-06-10T19:13:45.488Z,18.89
2023-06-10T19:17:46.988Z,18.68
2023-06-10T19:21:48.484Z,18.70
2023-06-10T19:25:49.917Z,18.54
2023-06-10T19:29:52.698Z,18.36
2023-06-10T19:33:54.153Z,18.17
2023-06-10T19:37:55.649Z,17.96
2023-06-10T19:41:57.110Z,17.62
2023-06-10T19:45:59.963Z,17.47
2023-06-10T19:50:01.579Z,17.32
2023-06-10T19:54:03.342Z,17.18
2023-06-10T19:58:04.817Z,17.03
2023-06-10T20:02:08.408Z,17.06
2023-06-10T20:06:09.911Z,17.03
2023-06-10T20:10:11.509Z,16.95
2023-06-10T20:14:13.772Z,17.00
2023-06-10T20:18:16.570Z,16.88
2023-06-10T20:22:18.152Z,17.06
2023-06-10T20:26:19.645Z,16.98
2023-06-10T20:30:21.112Z,16.98
2023-06-10T20:34:24.154Z,17.01
2023-06-10T20:38:25.634Z,17.08
2023-06-10T20:42:27.158Z,17.07
2023-06-10T20:46:28.767Z,17.06
2023-06-10T20:50:31.572Z,17.15
2023-06-10T20:54:33.039Z,16.95
2023-06-10T20:58:34.536Z,16.83
2023-06-10T21:02:36.045Z,16.73
2023-06-10T21:06:38.903Z,16.46
2023-06-10T21:10:40.451Z,16.31
2023-06-10T21:14:41.902Z,16.47
2023-06-10T21:18:43.417Z,16.44
2023-06-10T21:22:46.181Z,16.34
2023-06-10T21:26:47.649Z,16.39
2023-06-10T21:30:49.989Z,16.38
2023-06-10T21:34:51.440Z,16.14
2023-06-10T21:38:54.213Z,16.20
2023-06-10T21:42:55.647Z,15.97
2023-06-10T21:46:57.079Z,16.08
2023-06-10T21:50:58.785Z,15.72
2023-06-10T21:55:01.802Z,15.83
2023-06-10T21:59:03.515Z,15.63
2023-06-10T22:03:05.190Z,15.83
2023-06-10T22:07:06.835Z,15.93
2023-06-10T22:11:09.676Z,15.96
2023-06-10T22:15:12.329Z,15.91
2023-06-10T22:19:13.996Z,15.53
2023-06-10T22:23:19.380Z,15.38
2023-06-10T22:27:22.225Z,15.40
2023-06-10T22:31:23.802Z,15.23
2023-06-10T22:35:25.252Z,15.13
2023-06-10T22:39:26.683Z,15.06
2023-06-10T22:43:29.443Z,14.98
2023-06-10T22:47:30.940Z,14.93
2023-06-10T22:51:32.913Z,15.03
2023-06-10T22:55:34.352Z,15.04
2023-06-10T22:59:37.130Z,14.98
2023-06-10T23:03:38.629Z,14.90
2023-06-10T23:07:40.096Z,14.81
2023-06-10T23:11:41.558Z,14.74
2023-06-10T23:15:44.420Z,14.59
2023-06-10T23:19:45.889Z,14.48
2023-06-10T23:23:47.518Z,14.38
2023-06-10T23:27:49.168Z,14.22
2023-06-10T23:31:52.629Z,14.06
2023-06-10T23:35:54.348Z,14.23
2023-06-10T23:39:55.803Z,14.12
2023-06-10T23:43:57.237Z,13.97
2023-06-10T23:48:00.359Z,13.74
2023-06-10T23:52:01.915Z,13.58
2023-06-10T23:56:03.380Z,13.47
